createdAt,value
2023-03-22T00:00:14.871Z,0.00
2023-03-22T00:01:14.841Z,0.00
2023-03-22T00:02:14.867Z,0.00
2023-03-22T00:03:34.836Z,0.00
2023-03-22T00:04:14.831Z,0.00
2023-03-22T00:05:20.851Z,0.00
2023-03-22T00:06:14.804Z,0.00
2023-03-22T00:07:14.785Z,0.00
2023-03-22T00:08:14.813Z,0.00
2023-03-22T00:09:14.766Z,0.00
2023-03-22T00:10:14.774Z,0.00
2023-03-22T00:11:14.780Z,0.00
2023-03-22T00:12:14.731Z,0.00
2023-03-22T00:13:14.752Z,0.00
2023-03-22T00:14:14.774Z,0.00
2023-03-22T00:15:14.750Z,0.00
2023-03-22T00:16:14.786Z,0.00
2023-03-22T00:17:14.710Z,0.00
2023-03-22T00:18:14.710Z,0.00
2023-03-22T00:19:14.717Z,0.00
2023-03-22T00:20:14.947Z,0.00
2023-03-22T00:21:14.679Z,0.00
2023-03-22T00:22:14.716Z,0.00
2023-03-22T00:23:14.674Z,0.00
2023-03-22T00:24:14.682Z,0.00
2023-03-22T00:25:14.645Z,0.00
2023-03-22T00:26:14.717Z,0.00
2023-03-22T00:27:14.672Z,0.00
2023-03-22T00:28:14.647Z,0.00
2023-03-22T00:29:14.652Z,0.00
2023-03-22T00:30:14.630Z,0.00
2023-03-22T00:31:14.658Z,0.00
2023-03-22T00:32:14.663Z,0.00
2023-03-22T00:33:14.625Z,0.00
2023-03-22T00:34:14.600Z,0.00
2023-03-22T00:35:14.593Z,0.00
2023-03-22T00:36:14.596Z,0.00
2023-03-22T00:37:14.566Z,0.00
2023-03-22T00:38:14.599Z,0.00
2023-03-22T00:39:14.561Z,0.00
2023-03-22T00:40:15.736Z,0.00
2023-03-22T00:41:14.598Z,0.00
2023-03-22T00:42:14.527Z,0.00
2023-03-22T00:43:14.541Z,0.00
2023-03-22T00:44:14.574Z,0.00
2023-03-22T00:45:14.532Z,0.00
2023-03-22T00:46:14.584Z,0.00
2023-03-22T00:47:14.524Z,0.00
2023-03-22T00:48:14.570Z,0.00
2023-03-22T00:49:14.476Z,0.00
2023-03-22T00:50:14.538Z,0.00
2023-03-22T00:51:14.500Z,0.00
2023-03-22T00:52:14.466Z,0.00
2023-03-22T00:53:14.451Z,0.00
2023-03-22T00:54:14.479Z,0.00
2023-03-22T00:55:14.478Z,0.00
2023-03-22T00:56:14.575Z,0.00
2023-03-22T00:57:14.432Z,0.00
2023-03-22T00:58:14.441Z,0.00
2023-03-22T00:59:14.453Z,0.00
2023-03-22T01:00:14.437Z,0.00
2023-03-22T01:01:14.855Z,0.00
2023-03-22T01:02:14.440Z,0.00
2023-03-22T01:03:14.399Z,0.00
2023-03-22T01:04:14.385Z,0.00
2023-03-22T01:05:14.395Z,0.00
2023-03-22T01:06:14.370Z,0.00
2023-03-22T01:07:14.357Z,0.00
2023-03-22T01:08:14.418Z,0.00
2023-03-22T01:09:14.348Z,0.00
2023-03-22T01:10:14.350Z,0.00
2023-03-22T01:11:14.311Z,0.00
2023-03-22T01:12:14.317Z,0.00
2023-03-22T01:13:15.905Z,0.00
2023-03-22T01:14:14.337Z,0.00
2023-03-22T01:15:14.306Z,0.00
2023-03-22T01:16:14.310Z,0.00
2023-03-22T01:17:14.254Z,0.00
2023-03-22T01:18:14.289Z,0.00
2023-03-22T01:19:14.269Z,0.00
2023-03-22T01:20:14.312Z,0.00
2023-03-22T01:21:14.236Z,0.00
2023-03-22T01:22:14.230Z,0.00
2023-03-22T01:23:14.235Z,0.00
2023-03-22T01:24:14.232Z,0.00
2023-03-22T01:25:14.262Z,0.00
2023-03-22T01:26:14.264Z,0.00
2023-03-22T01:27:14.202Z,0.00
2023-03-22T01:28:14.212Z,0.00
2023-03-22T01:29:14.180Z,0.00
2023-03-22T01:30:14.192Z,0.00
2023-03-22T01:31:14.197Z,0.00
2023-03-22T01:32:14.200Z,0.00
2023-03-22T01:33:14.158Z,0.00
2023-03-22T01:34:14.289Z,0.00
2023-03-22T01:35:14.149Z,0.00
2023-03-22T01:36:14.148Z,0.00
2023-03-22T01:37:14.149Z,0.00
2023-03-22T01:38:14.190Z,0.00
2023-03-22T01:39:14.150Z,0.00
2023-03-22T01:40:14.117Z,0.00
2023-03-22T01:41:14.119Z,0.00
2023-03-22T01:42:14.116Z,0.00
2023-03-22T01:43:14.121Z,0.00
2023-03-22T01:44:14.148Z,0.00
2023-03-22T01:45:25.007Z,0.00
2023-03-22T01:46:14.123Z,0.00
2023-03-22T01:47:14.100Z,0.00
2023-03-22T01:48:14.153Z,0.00
2023-03-22T01:49:42.421Z,0.00
2023-03-22T01:50:14.112Z,0.00
2023-03-22T01:51:14.030Z,0.00
2023-03-22T01:52:14.033Z,0.00
2023-03-22T01:53:14.060Z,0.00
2023-03-22T01:54:14.011Z,0.00
2023-03-22T01:55:14.004Z,0.00
2023-03-22T01:56:14.081Z,0.00
2023-03-22T01:57:14.037Z,0.00
2023-03-22T01:58:13.978Z,0.00
2023-03-22T01:59:13.983Z,0.00
2023-03-22T02:00:13.978Z,0.00
2023-03-22T02:01:14.031Z,0.00
2023-03-22T02:02:14.003Z,0.00
2023-03-22T02:03:13.949Z,0.00
2023-03-22T02:04:13.946Z,0.00
2023-03-22T02:05:13.948Z,0.00
2023-03-22T02:06:13.931Z,0.00
2023-03-22T02:07:13.909Z,0.00
2023-03-22T02:08:13.965Z,0.00
2023-03-22T02:09:13.921Z,0.00
2023-03-22T02:10:49.174Z,0.00
2023-03-22T02:11:13.898Z,0.00
2023-03-22T02:12:13.899Z,0.00
2023-03-22T02:13:13.892Z,0.00
2023-03-22T02:14:13.915Z,0.00
2023-03-22T02:15:13.861Z,0.00
2023-03-22T02:16:13.928Z,0.00
2023-03-22T02:17:13.843Z,0.00
2023-03-22T02:18:13.873Z,0.00
2023-03-22T02:19:13.830Z,0.00
2023-03-22T02:20:13.889Z,0.00
2023-03-22T02:21:13.812Z,0.00
2023-03-22T02:22:13.822Z,0.00
2023-03-22T02:23:13.805Z,0.00
2023-03-22T02:24:13.780Z,0.00
2023-03-22T02:25:13.795Z,0.00
2023-03-22T02:26:14.033Z,0.00
2023-03-22T02:27:13.769Z,0.00
2023-03-22T02:28:13.776Z,0.00
2023-03-22T02:29:28.154Z,0.00
2023-03-22T02:30:13.764Z,0.00
2023-03-22T02:31:13.784Z,0.00
2023-03-22T02:32:13.786Z,0.00
2023-03-22T02:33:13.733Z,0.00
2023-03-22T02:34:13.738Z,0.00
2023-03-22T02:35:13.751Z,0.00
2023-03-22T02:36:13.720Z,0.00
2023-03-22T02:37:13.697Z,0.00
2023-03-22T02:38:13.720Z,0.00
2023-03-22T02:39:13.679Z,0.00
2023-03-22T02:40:13.779Z,0.00
2023-03-22T02:41:13.671Z,0.00
2023-03-22T02:42:13.676Z,0.00
2023-03-22T02:43:13.653Z,0.00
2023-03-22T02:44:13.674Z,0.00
2023-03-22T02:45:13.643Z,0.00
2023-03-22T02:46:13.662Z,0.00
2023-03-22T02:47:13.630Z,0.00
2023-03-22T02:48:13.664Z,0.00
2023-03-22T02:49:13.644Z,0.00
2023-03-22T02:50:13.630Z,0.00
2023-03-22T02:51:13.590Z,0.00
2023-03-22T02:52:13.585Z,0.00
2023-03-22T02:53:13.571Z,0.00
2023-03-22T02:54:13.587Z,0.00
2023-03-22T02:55:13.562Z,0.00
2023-03-22T02:56:13.606Z,0.00
2023-03-22T02:57:13.545Z,0.00
2023-03-22T02:58:13.533Z,0.00
2023-03-22T02:59:13.532Z,0.00
2023-03-22T03:00:13.529Z,0.00
2023-03-22T03:01:13.552Z,0.00
2023-03-22T03:02:13.600Z,0.00
2023-03-22T03:03:13.500Z,0.00
2023-03-22T03:04:13.527Z,0.00
2023-03-22T03:05:13.492Z,0.00
2023-03-22T03:06:13.476Z,0.00
2023-03-22T03:07:13.601Z,0.00
2023-03-22T03:08:13.527Z,0.00
2023-03-22T03:09:13.481Z,0.00
2023-03-22T03:10:13.464Z,0.00
2023-03-22T03:11:13.450Z,0.00
2023-03-22T03:12:13.431Z,0.00
2023-03-22T03:13:13.448Z,0.00
2023-03-22T03:14:13.451Z,0.00
2023-03-22T03:15:13.412Z,0.00
2023-03-22T03:16:13.494Z,0.00
2023-03-22T03:17:13.401Z,0.00
2023-03-22T03:18:13.405Z,0.00
2023-03-22T03:19:13.390Z,0.00
2023-03-22T03:20:13.439Z,0.00
2023-03-22T03:21:13.385Z,0.00
2023-03-22T03:22:53.965Z,0.00
2023-03-22T03:23:14.383Z,0.00
2023-03-22T03:24:13.359Z,0.00
2023-03-22T03:25:13.339Z,0.00
2023-03-22T03:26:13.850Z,0.00
2023-03-22T03:27:13.352Z,0.00
2023-03-22T03:28:13.339Z,0.00
2023-03-22T03:29:13.347Z,0.00
2023-03-22T03:30:13.320Z,0.00
2023-03-22T03:31:13.332Z,0.00
2023-03-22T03:32:13.334Z,0.00
2023-03-22T03:33:13.298Z,0.00
2023-03-22T03:34:13.275Z,0.00
2023-03-22T03:35:13.255Z,0.00
2023-03-22T03:36:13.255Z,0.00
2023-03-22T03:37:13.260Z,0.00
2023-03-22T03:38:13.290Z,0.00
2023-03-22T03:39:13.242Z,0.00
2023-03-22T03:40:13.234Z,0.00
2023-03-22T03:41:13.211Z,0.00
2023-03-22T03:42:13.239Z,0.00
2023-03-22T03:43:13.234Z,0.00
2023-03-22T03:44:13.238Z,0.00
2023-03-22T03:45:13.197Z,0.00
2023-03-22T03:46:13.247Z,0.00
2023-03-22T03:47:13.181Z,0.00
2023-03-22T03:48:13.232Z,0.00
2023-03-22T03:49:13.168Z,0.00
2023-03-22T03:50:13.216Z,0.00
2023-03-22T03:51:13.160Z,0.00
2023-03-22T03:52:13.156Z,0.00
2023-03-22T03:53:13.142Z,0.00
2023-03-22T03:54:13.146Z,0.00
2023-03-22T03:55:13.119Z,0.00
2023-03-22T03:56:13.164Z,0.00
2023-03-22T03:57:13.118Z,0.00
2023-03-22T03:58:13.106Z,0.00
2023-03-22T03:59:13.095Z,0.00
2023-03-22T04:00:13.114Z,0.00
2023-03-22T04:01:13.113Z,0.00
2023-03-22T04:02:13.139Z,0.00
2023-03-22T04:03:13.054Z,0.00
2023-03-22T04:04:13.128Z,0.00
2023-03-22T04:05:13.050Z,0.00
2023-03-22T04:06:13.043Z,0.00
2023-03-22T04:07:13.047Z,0.00
2023-03-22T04:08:13.078Z,0.00
2023-03-22T04:09:39.892Z,0.00
2023-03-22T04:10:14.030Z,0.00
2023-03-22T04:11:13.031Z,0.00
2023-03-22T04:12:13.015Z,0.00
2023-03-22T04:13:13.014Z,0.00
2023-03-22T04:14:13.056Z,0.00
2023-03-22T04:15:12.986Z,0.00
2023-03-22T04:16:13.021Z,0.00
2023-03-22T04:17:12.979Z,0.00
2023-03-22T04:18:12.979Z,0.00
2023-03-22T04:19:12.963Z,0.00
2023-03-22T04:20:12.999Z,0.00
2023-03-22T04:21:12.944Z,0.00
2023-03-22T04:22:12.934Z,0.00
2023-03-22T04:23:12.912Z,0.00
2023-03-22T04:24:12.921Z,0.00
2023-03-22T04:25:12.927Z,0.00
2023-03-22T04:26:12.940Z,0.00
2023-03-22T04:27:12.890Z,0.00
2023-03-22T04:28:12.906Z,0.00
2023-03-22T04:29:12.913Z,0.00
2023-03-22T04:30:12.899Z,0.00
2023-03-22T04:31:12.916Z,0.00
2023-03-22T04:32:13.307Z,0.00
2023-03-22T04:33:12.859Z,0.00
2023-03-22T04:34:12.852Z,0.00
2023-03-22T04:35:34.059Z,0.00
2023-03-22T04:36:12.849Z,0.00
2023-03-22T04:37:12.850Z,0.00
2023-03-22T04:38:12.838Z,0.00
2023-03-22T04:39:12.823Z,0.00
2023-03-22T04:40:12.858Z,0.00
2023-03-22T04:41:12.840Z,0.00
2023-03-22T04:42:12.798Z,0.00
2023-03-22T04:43:13.804Z,0.00
2023-03-22T04:44:12.846Z,0.00
2023-03-22T04:45:12.789Z,0.00
2023-03-22T04:46:12.907Z,0.00
2023-03-22T04:47:12.768Z,0.00
2023-03-22T04:48:12.779Z,0.00
2023-03-22T04:49:12.742Z,0.00
2023-03-22T04:50:12.771Z,0.00
2023-03-22T04:51:12.719Z,0.00
2023-03-22T04:52:12.738Z,0.00
2023-03-22T04:53:12.705Z,1.00
2023-03-22T04:54:12.708Z,1.00
2023-03-22T04:55:12.701Z,1.00
2023-03-22T04:56:12.730Z,0.00
2023-03-22T04:57:20.339Z,0.00
2023-03-22T04:58:28.232Z,0.00
2023-03-22T04:59:12.681Z,0.00
2023-03-22T05:00:12.658Z,1.00
2023-03-22T05:01:12.770Z,1.00
2023-03-22T05:02:12.669Z,2.00
2023-03-22T05:03:12.655Z,1.00
2023-03-22T05:04:12.621Z,2.00
2023-03-22T05:05:12.621Z,2.00
2023-03-22T05:06:12.653Z,3.00
2023-03-22T05:07:12.620Z,3.00
2023-03-22T05:08:12.654Z,6.00
2023-03-22T05:09:12.629Z,7.00
2023-03-22T05:10:12.594Z,7.00
2023-03-22T05:11:12.571Z,10.00
2023-03-22T05:12:12.604Z,12.00
2023-03-22T05:13:12.576Z,13.00
2023-03-22T05:14:12.633Z,15.00
2023-03-22T05:15:12.567Z,16.00
2023-03-22T05:16:12.585Z,18.00
2023-03-22T05:17:12.595Z,20.00
2023-03-22T05:18:12.558Z,23.00
2023-03-22T05:19:12.570Z,25.00
2023-03-22T05:20:12.572Z,29.00
2023-03-22T05:21:12.532Z,32.00
2023-03-22T05:22:12.505Z,36.00
2023-03-22T05:23:12.494Z,39.00
2023-03-22T05:24:12.497Z,43.00
2023-03-22T05:25:12.563Z,45.00
2023-03-22T05:26:12.550Z,50.00
2023-03-22T05:27:12.479Z,53.00
2023-03-22T05:28:12.440Z,57.00
2023-03-22T05:29:12.492Z,63.00
2023-03-22T05:30:12.468Z,65.00
2023-03-22T05:31:12.442Z,70.00
2023-03-22T05:32:12.466Z,75.00
2023-03-22T05:33:12.431Z,77.00
2023-03-22T05:34:12.404Z,81.00
2023-03-22T05:35:12.400Z,87.00
2023-03-22T05:36:12.441Z,94.00
2023-03-22T05:37:12.398Z,104.00
2023-03-22T05:38:12.825Z,109.00
2023-03-22T05:39:12.387Z,117.00
2023-03-22T05:40:12.371Z,124.00
2023-03-22T05:41:12.362Z,132.00
2023-03-22T05:42:12.343Z,139.00
2023-03-22T05:43:12.365Z,146.00
2023-03-22T05:44:12.385Z,162.00
2023-03-22T05:45:12.342Z,169.00
2023-03-22T05:46:12.306Z,181.00
2023-03-22T05:47:13.943Z,190.00
2023-03-22T05:48:12.356Z,182.00
2023-03-22T05:49:12.339Z,174.00
2023-03-22T05:50:12.385Z,186.00
2023-03-22T05:51:12.272Z,197.00
2023-03-22T05:52:17.803Z,199.00
2023-03-22T05:53:12.273Z,204.00
2023-03-22T05:54:12.265Z,212.00
2023-03-22T05:55:12.254Z,232.00
2023-03-22T05:56:12.274Z,263.00
2023-03-22T05:57:12.247Z,279.00
2023-03-22T05:58:12.227Z,291.00
2023-03-22T05:59:12.249Z,302.00
2023-03-22T06:00:12.231Z,312.00
2023-03-22T06:01:12.197Z,318.00
2023-03-22T06:02:12.268Z,367.00
2023-03-22T06:03:12.240Z,389.00
2023-03-22T06:04:12.213Z,399.00
2023-03-22T06:05:12.171Z,403.00
2023-03-22T06:06:12.171Z,418.00
2023-03-22T06:07:12.178Z,394.00
2023-03-22T06:08:12.204Z,434.00
2023-03-22T06:09:17.310Z,446.00
2023-03-22T06:10:13.149Z,455.00
2023-03-22T06:11:12.125Z,450.00
2023-03-22T06:12:12.140Z,467.00
2023-03-22T06:13:12.233Z,512.00
2023-03-22T06:14:12.197Z,564.00
2023-03-22T06:15:12.108Z,512.00
2023-03-22T06:16:17.955Z,592.00
2023-03-22T06:17:12.120Z,582.00
2023-03-22T06:18:12.070Z,458.00
2023-03-22T06:19:12.072Z,444.00
2023-03-22T06:20:12.087Z,460.00
2023-03-22T06:21:12.083Z,495.00
2023-03-22T06:22:12.040Z,642.00
2023-03-22T06:23:12.061Z,793.00
2023-03-22T06:24:12.031Z,907.00
2023-03-22T06:25:12.038Z,917.00
2023-03-22T06:26:12.057Z,922.00
2023-03-22T06:27:12.018Z,844.00
2023-03-22T06:28:12.049Z,860.00
2023-03-22T06:29:11.991Z,746.00
2023-03-22T06:30:11.993Z,591.00
2023-03-22T06:31:12.054Z,536.00
2023-03-22T06:32:12.018Z,561.00
2023-03-22T06:33:11.958Z,566.00
2023-03-22T06:34:11.987Z,532.00
2023-03-22T06:35:11.942Z,557.00
2023-03-22T06:36:11.951Z,567.00
2023-03-22T06:37:11.952Z,519.00
2023-03-22T06:38:11.972Z,564.00
2023-03-22T06:39:11.925Z,572.00
2023-03-22T06:40:11.946Z,629.00
2023-03-22T06:41:11.938Z,685.00
2023-03-22T06:42:11.892Z,757.00
2023-03-22T06:43:11.888Z,776.00
2023-03-22T06:44:12.140Z,758.00
2023-03-22T06:45:11.884Z,759.00
2023-03-22T06:46:11.951Z,810.00
2023-03-22T06:47:11.883Z,874.00
2023-03-22T06:48:11.911Z,938.00
2023-03-22T06:49:11.871Z,995.00
2023-03-22T06:50:11.883Z,1008.00
2023-03-22T06:51:11.837Z,916.00
2023-03-22T06:52:11.825Z,928.00
2023-03-22T06:53:11.850Z,978.00
2023-03-22T06:54:11.827Z,1009.00
2023-03-22T06:55:11.817Z,1041.00
2023-03-22T06:56:11.841Z,1184.00
2023-03-22T06:57:11.786Z,1206.00
2023-03-22T06:58:11.761Z,1136.00
2023-03-22T06:59:11.775Z,1220.00
2023-03-22T07:00:11.760Z,1323.00
2023-03-22T07:01:11.791Z,1284.00
2023-03-22T07:02:11.774Z,1390.00
2023-03-22T07:03:11.733Z,1528.00
2023-03-22T07:04:11.803Z,1592.00
2023-03-22T07:05:11.739Z,1681.00
2023-03-22T07:06:11.744Z,1716.00
2023-03-22T07:07:11.705Z,1793.00
2023-03-22T07:08:11.735Z,1855.00
2023-03-22T07:09:11.693Z,2007.00
2023-03-22T07:10:11.697Z,2121.00
2023-03-22T07:11:11.674Z,2250.00
2023-03-22T07:12:11.666Z,2372.00
2023-03-22T07:13:11.665Z,2363.00
2023-03-22T07:14:11.700Z,2326.00
2023-03-22T07:15:11.661Z,2279.00
2023-03-22T07:16:11.719Z,2247.00
2023-03-22T07:17:11.625Z,2411.00
2023-03-22T07:18:11.670Z,2479.00
2023-03-22T07:19:16.941Z,2465.00
2023-03-22T07:20:11.673Z,2305.00
2023-03-22T07:21:11.626Z,2287.00
2023-03-22T07:22:11.617Z,2223.00
2023-03-22T07:23:11.605Z,2032.00
2023-03-22T07:24:11.572Z,1732.00
2023-03-22T07:25:11.579Z,1550.00
2023-03-22T07:26:11.618Z,1414.00
2023-03-22T07:27:11.564Z,1227.00
2023-03-22T07:28:11.563Z,1132.00
2023-03-22T07:29:11.547Z,1200.00
2023-03-22T07:30:11.535Z,1304.00
2023-03-22T07:31:11.633Z,1457.00
2023-03-22T07:32:11.598Z,1623.00
2023-03-22T07:33:11.540Z,1737.00
2023-03-22T07:34:11.494Z,1571.00
2023-03-22T07:35:11.698Z,1302.00
2023-03-22T07:36:14.859Z,1204.00
2023-03-22T07:37:11.474Z,1330.00
2023-03-22T07:38:11.520Z,1540.00
2023-03-22T07:39:11.475Z,1365.00
2023-03-22T07:40:11.479Z,1192.00
2023-03-22T07:41:11.493Z,1116.00
2023-03-22T07:42:11.450Z,1086.00
2023-03-22T07:43:11.506Z,1218.00
2023-03-22T07:44:18.071Z,1371.00
2023-03-22T07:45:12.496Z,1575.00
2023-03-22T07:46:11.506Z,1652.00
2023-03-22T07:47:11.426Z,1846.00
2023-03-22T07:48:11.498Z,2051.00
2023-03-22T07:49:11.440Z,2405.00
2023-03-22T07:50:11.704Z,2543.00
2023-03-22T07:51:11.392Z,2735.00
2023-03-22T07:52:11.369Z,2986.00
2023-03-22T07:53:11.373Z,2925.00
2023-03-22T07:54:14.037Z,2965.00
2023-03-22T07:55:12.404Z,3154.00
2023-03-22T07:56:11.340Z,3194.00
2023-03-22T07:57:11.354Z,2912.00
2023-03-22T07:58:11.358Z,2703.00
2023-03-22T07:59:11.372Z,2433.00
2023-03-22T08:00:11.326Z,2271.00
2023-03-22T08:01:11.381Z,2280.00
2023-03-22T08:02:11.427Z,2324.00
2023-03-22T08:03:11.360Z,2350.00
2023-03-22T08:04:11.293Z,2445.00
2023-03-22T08:05:11.320Z,2487.00
2023-03-22T08:06:11.293Z,2462.00
2023-03-22T08:07:11.308Z,2397.00
2023-03-22T08:08:11.265Z,2428.00
2023-03-22T08:09:11.266Z,2500.00
2023-03-22T08:10:11.258Z,2551.00
2023-03-22T08:11:11.266Z,2550.00
2023-03-22T08:12:11.246Z,2416.00
2023-03-22T08:13:11.289Z,2523.00
2023-03-22T08:14:11.237Z,2094.00
2023-03-22T08:15:11.224Z,1951.00
2023-03-22T08:16:11.237Z,1744.00
2023-03-22T08:17:11.194Z,1565.00
2023-03-22T08:18:11.180Z,1486.00
2023-03-22T08:19:11.221Z,1581.00
2023-03-22T08:20:11.172Z,1654.00
2023-03-22T08:21:11.177Z,1628.00
2023-03-22T08:22:11.160Z,1830.00
2023-03-22T08:23:11.151Z,2577.00
2023-03-22T08:24:11.154Z,2530.00
2023-03-22T08:25:11.174Z,2461.00
2023-03-22T08:26:11.163Z,2576.00
2023-03-22T08:27:11.138Z,2679.00
2023-03-22T08:28:11.089Z,2785.00
2023-03-22T08:29:11.109Z,2972.00
2023-03-22T08:30:11.129Z,2914.00
2023-03-22T08:31:13.210Z,3077.00
2023-03-22T08:32:11.126Z,2570.00
2023-03-22T08:33:11.110Z,1987.00
2023-03-22T08:34:11.062Z,2340.00
2023-03-22T08:35:11.099Z,3112.00
2023-03-22T08:36:11.076Z,3170.00
2023-03-22T08:37:11.067Z,3087.00
2023-03-22T08:38:11.026Z,2842.00
2023-03-22T08:39:11.036Z,2994.00
2023-03-22T08:40:11.020Z,2973.00
2023-03-22T08:41:11.014Z,3076.00
2023-03-22T08:42:11.019Z,3315.00
2023-03-22T08:43:11.033Z,3629.00
2023-03-22T08:44:10.977Z,3521.00
2023-03-22T08:45:10.994Z,3409.00
2023-03-22T08:46:11.024Z,3610.00
2023-03-22T08:47:10.964Z,3889.00
2023-03-22T08:48:11.141Z,3842.00
2023-03-22T08:49:11.049Z,3901.00
2023-03-22T08:50:10.928Z,3859.00
2023-03-22T08:51:10.953Z,3804.00
2023-03-22T08:52:10.932Z,3744.00
2023-03-22T08:53:11.763Z,3874.00
2023-03-22T08:54:10.928Z,3768.00
2023-03-22T08:55:10.948Z,3971.00
2023-03-22T08:56:10.887Z,4144.00
2023-03-22T08:57:10.901Z,4183.00
2023-03-22T08:58:10.888Z,4082.00
2023-03-22T08:59:10.867Z,3745.00
2023-03-22T09:00:10.887Z,3506.00
2023-03-22T09:01:11.090Z,3780.00
2023-03-22T09:02:11.010Z,3679.00
2023-03-22T09:03:10.862Z,3528.00
2023-03-22T09:04:10.981Z,3226.00
2023-03-22T09:05:10.837Z,2960.00
2023-03-22T09:06:10.813Z,2668.00
2023-03-22T09:07:10.857Z,2732.00
2023-03-22T09:08:18.525Z,3220.00
2023-03-22T09:09:11.801Z,2901.00
2023-03-22T09:10:10.824Z,2999.00
2023-03-22T09:11:10.770Z,3153.00
2023-03-22T09:12:10.780Z,3000.00
2023-03-22T09:13:10.809Z,3131.00
2023-03-22T09:14:10.769Z,3462.00
2023-03-22T09:15:10.766Z,3575.00
2023-03-22T09:16:10.857Z,4162.00
2023-03-22T09:17:10.746Z,4145.00
2023-03-22T09:18:10.743Z,3486.00
2023-03-22T09:19:10.793Z,3024.00
2023-03-22T09:20:13.151Z,3062.00
2023-03-22T09:21:10.741Z,2971.00
2023-03-22T09:22:10.733Z,2798.00
2023-03-22T09:23:10.698Z,2627.00
2023-03-22T09:24:10.701Z,2407.00
2023-03-22T09:25:12.676Z,2751.00
2023-03-22T09:26:10.706Z,2935.00
2023-03-22T09:27:10.651Z,2887.00
2023-03-22T09:28:10.664Z,2967.00
2023-03-22T09:29:10.647Z,3398.00
2023-03-22T09:30:10.649Z,3660.00
2023-03-22T09:31:10.714Z,3783.00
2023-03-22T09:32:10.652Z,3413.00
2023-03-22T09:33:10.620Z,3658.00
2023-03-22T09:34:10.645Z,4282.00
2023-03-22T09:35:10.600Z,3963.00
2023-03-22T09:36:10.613Z,3682.00
2023-03-22T09:37:10.628Z,3474.00
2023-03-22T09:38:10.610Z,3498.00
2023-03-22T09:39:10.580Z,3594.00
2023-03-22T09:40:10.598Z,3762.00
2023-03-22T09:41:10.599Z,3662.00
2023-03-22T09:42:10.562Z,4085.00
2023-03-22T09:43:10.585Z,3852.00
2023-03-22T09:44:10.583Z,3744.00
2023-03-22T09:45:10.535Z,3765.00
2023-03-22T09:46:10.586Z,3767.00
2023-03-22T09:47:10.515Z,3628.00
2023-03-22T09:48:10.551Z,3501.00
2023-03-22T09:49:10.743Z,3394.00
2023-03-22T09:50:10.498Z,3486.00
2023-03-22T09:51:10.501Z,3922.00
2023-03-22T09:52:10.514Z,4192.00
2023-03-22T09:53:10.500Z,4264.00
2023-03-22T09:54:10.472Z,4407.00
2023-03-22T09:55:10.494Z,4438.00
2023-03-22T09:56:10.444Z,4487.00
2023-03-22T09:57:10.443Z,4503.00
2023-03-22T09:58:10.475Z,4400.00
2023-03-22T09:59:10.444Z,4492.00
2023-03-22T10:00:10.453Z,4526.00
2023-03-22T10:01:15.759Z,4394.00
2023-03-22T10:02:10.583Z,4257.00
2023-03-22T10:03:10.406Z,4174.00
2023-03-22T10:04:10.417Z,4185.00
2023-03-22T10:05:10.390Z,4265.00
2023-03-22T10:06:10.380Z,4301.00
2023-03-22T10:07:10.441Z,4264.00
2023-03-22T10:08:10.362Z,4314.00
2023-03-22T10:09:10.360Z,4370.00
2023-03-22T10:10:10.362Z,4449.00
2023-03-22T10:11:10.398Z,4469.00
2023-03-22T10:12:10.358Z,4503.00
2023-03-22T10:13:10.383Z,4563.00
2023-03-22T10:14:10.342Z,4551.00
2023-03-22T10:15:10.333Z,4526.00
2023-03-22T10:16:10.360Z,4558.00
2023-03-22T10:17:10.329Z,4584.00
2023-03-22T10:18:10.626Z,4585.00
2023-03-22T10:19:10.337Z,4492.00
2023-03-22T10:20:10.283Z,4590.00
2023-03-22T10:21:10.270Z,4828.00
2023-03-22T10:22:10.279Z,4934.00
2023-03-22T10:23:10.262Z,5072.00
2023-03-22T10:24:10.240Z,5332.00
2023-03-22T10:25:10.264Z,5018.00
2023-03-22T10:26:10.246Z,5956.00
2023-03-22T10:27:11.866Z,6090.00
2023-03-22T10:28:10.204Z,5210.00
2023-03-22T10:29:10.209Z,4785.00
2023-03-22T10:30:10.212Z,4485.00
2023-03-22T10:31:10.240Z,4627.00
2023-03-22T10:32:10.203Z,5341.00
2023-03-22T10:33:10.191Z,5666.00
2023-03-22T10:34:10.168Z,5374.00
2023-03-22T10:35:10.169Z,5280.00
2023-03-22T10:36:10.177Z,6473.00
2023-03-22T10:37:10.182Z,6057.00
2023-03-22T10:38:10.125Z,4817.00
2023-03-22T10:39:10.125Z,4819.00
2023-03-22T10:40:10.117Z,5983.00
2023-03-22T10:41:10.117Z,6117.00
2023-03-22T10:42:10.109Z,4776.00
2023-03-22T10:43:10.118Z,4730.00
2023-03-22T10:44:10.083Z,5018.00
2023-03-22T10:45:10.105Z,4151.00
2023-03-22T10:46:10.120Z,4488.00
2023-03-22T10:47:10.073Z,4149.00
2023-03-22T10:48:10.095Z,3826.00
2023-03-22T10:49:10.112Z,3769.00
2023-03-22T10:50:10.084Z,3688.00
2023-03-22T10:51:10.076Z,4343.00
2023-03-22T10:52:10.050Z,3690.00
2023-03-22T10:53:10.030Z,4341.00
2023-03-22T10:54:10.032Z,4036.00
2023-03-22T10:55:10.596Z,3664.00
2023-03-22T10:56:10.005Z,4664.00
2023-03-22T10:57:10.022Z,3902.00
2023-03-22T10:58:09.989Z,5036.00
2023-03-22T10:59:09.974Z,5568.00
2023-03-22T11:00:09.969Z,5339.00
2023-03-22T11:01:10.117Z,5539.00
2023-03-22T11:02:10.137Z,5345.00
2023-03-22T11:03:09.986Z,5175.00
2023-03-22T11:04:09.969Z,4698.00
2023-03-22T11:05:09.953Z,4053.00
2023-03-22T11:06:09.944Z,4161.00
2023-03-22T11:07:09.973Z,4139.00
2023-03-22T11:08:09.915Z,3916.00
2023-03-22T11:09:09.922Z,4540.00
2023-03-22T11:10:10.110Z,4426.00
2023-03-22T11:11:09.887Z,4500.00
2023-03-22T11:12:09.890Z,4844.00
2023-03-22T11:13:09.908Z,4600.00
2023-03-22T11:14:09.890Z,4306.00
2023-03-22T11:15:09.878Z,4052.00
2023-03-22T11:16:09.893Z,5014.00
2023-03-22T11:17:09.873Z,5282.00
2023-03-22T11:18:09.838Z,3913.00
2023-03-22T11:19:09.857Z,5292.00
2023-03-22T11:20:09.896Z,5438.00
2023-03-22T11:21:09.858Z,5427.00
2023-03-22T11:22:09.832Z,5206.00
2023-03-22T11:23:09.798Z,5569.00
2023-03-22T11:24:09.796Z,5162.00
2023-03-22T11:25:09.846Z,4504.00
2023-03-22T11:26:09.854Z,4126.00
2023-03-22T11:27:09.773Z,4763.00
2023-03-22T11:28:09.780Z,5448.00
2023-03-22T11:29:09.767Z,5020.00
2023-03-22T11:30:09.778Z,4070.00
2023-03-22T11:31:09.805Z,5227.00
2023-03-22T11:32:09.802Z,4726.00
2023-03-22T11:33:09.811Z,5360.00
2023-03-22T11:34:09.729Z,5093.00
2023-03-22T11:35:09.727Z,4163.00
2023-03-22T11:36:09.715Z,5508.00
2023-03-22T11:37:09.751Z,5724.00
2023-03-22T11:38:09.702Z,5654.00
2023-03-22T11:39:09.677Z,4911.00
2023-03-22T11:40:09.665Z,5795.00
2023-03-22T11:41:09.657Z,5712.00
2023-03-22T11:42:09.907Z,5782.00
2023-03-22T11:43:09.687Z,5730.00
2023-03-22T11:44:09.652Z,5751.00
2023-03-22T11:45:09.631Z,5760.00
2023-03-22T11:46:09.675Z,5918.00
2023-03-22T11:47:09.604Z,5829.00
2023-03-22T11:48:09.711Z,5756.00
2023-03-22T11:49:09.749Z,5246.00
2023-03-22T11:50:10.619Z,5040.00
2023-03-22T11:51:09.596Z,5008.00
2023-03-22T11:52:09.589Z,4747.00
2023-03-22T11:53:09.657Z,4657.00
2023-03-22T11:54:09.597Z,4719.00
2023-03-22T11:55:09.625Z,4873.00
2023-03-22T11:56:09.559Z,4728.00
2023-03-22T11:57:09.568Z,4796.00
2023-03-22T11:58:09.540Z,4615.00
2023-03-22T11:59:09.529Z,4503.00
2023-03-22T12:00:09.519Z,4552.00
2023-03-22T12:01:10.034Z,4803.00
2023-03-22T12:02:09.545Z,4813.00
2023-03-22T12:03:09.670Z,4774.00
2023-03-22T12:04:09.583Z,4665.00
2023-03-22T12:05:09.492Z,4472.00
2023-03-22T12:06:09.568Z,4395.00
2023-03-22T12:07:09.553Z,4505.00
2023-03-22T12:08:09.508Z,4599.00
2023-03-22T12:09:09.468Z,4462.00
2023-03-22T12:10:09.456Z,4414.00
2023-03-22T12:11:09.467Z,4411.00
2023-03-22T12:12:09.441Z,4335.00
2023-03-22T12:13:09.591Z,4411.00
2023-03-22T12:14:09.489Z,4308.00
2023-03-22T12:15:09.417Z,4241.00
2023-03-22T12:16:09.480Z,4349.00
2023-03-22T12:17:09.425Z,4397.00
2023-03-22T12:18:09.504Z,4382.00
2023-03-22T12:19:09.462Z,4330.00
2023-03-22T12:20:09.366Z,4287.00
2023-03-22T12:21:09.377Z,4290.00
2023-03-22T12:22:09.378Z,4299.00
2023-03-22T12:23:09.372Z,4302.00
2023-03-22T12:24:10.389Z,4212.00
2023-03-22T12:25:09.395Z,4249.00
2023-03-22T12:26:09.370Z,4668.00
2023-03-22T12:27:09.395Z,4794.00
2023-03-22T12:28:09.394Z,4659.00
2023-03-22T12:29:09.324Z,4716.00
2023-03-22T12:30:09.330Z,4399.00
2023-03-22T12:31:09.370Z,4493.00
2023-03-22T12:32:09.310Z,4393.00
2023-03-22T12:33:09.436Z,4365.00
2023-03-22T12:34:09.271Z,4419.00
2023-03-22T12:35:17.291Z,4326.00
2023-03-22T12:36:10.378Z,4322.00
2023-03-22T12:37:09.340Z,4374.00